sensor_id;sensor_type;location;lat;lon;timestamp;pressure;altitude;pressure_sealevel;temperature;humidity
16595;BME280;8410;52.532;13.336;2024-03-06T00:00:39;101524.94;;;13.96;49.23
16595;BME280;8410;52.532;13.336;2024-03-06T00:03:08;101532.84;;;14.09;48.90
16595;BME280;8410;52.532;13.336;2024-03-06T00:05:36;101533.66;;;14.07;48.96
16595;BME280;8410;52.532;13.336;2024-03-06T00:08:04;101548.19;;;13.93;49.91
16595;BME280;8410;52.532;13.336;2024-03-06T00:10:31;101540.31;;;13.83;49.79
16595;BME280;8410;52.532;13.336;2024-03-06T00:12:59;101544.34;;;13.63;50.33
16595;BME280;8410;52.532;13.336;2024-03-06T00:15:27;101550.00;;;14.03;49.93
16595;BME280;8410;52.532;13.336;2024-03-06T00:17:54;101547.75;;;14.33;48.93
16595;BME280;8410;52.532;13.336;2024-03-06T00:20:23;101559.06;;;14.42;48.83
16595;BME280;8410;52.532;13.336;2024-03-06T00:22:51;101557.28;;;14.38;48.86
16595;BME280;8410;52.532;13.336;2024-03-06T00:25:19;101562.47;;;14.38;49.07
16595;BME280;8410;52.532;13.336;2024-03-06T00:27:46;101562.38;;;14.28;48.59
16595;BME280;8410;52.532;13.336;2024-03-06T00:30:14;101565.84;;;14.27;49.43
16595;BME280;8410;52.532;13.336;2024-03-06T00:32:41;101565.88;;;14.33;49.13
16595;BME280;8410;52.532;13.336;2024-03-06T00:35:09;101566.72;;;14.31;47.93
16595;BME280;8410;52.532;13.336;2024-03-06T00:37:39;101571.56;;;14.00;49.28
16595;BME280;8410;52.532;13.336;2024-03-06T00:40:08;101578.59;;;14.12;49.16
16595;BME280;8410;52.532;13.336;2024-03-06T00:42:37;101575.28;;;14.22;49.09
16595;BME280;8410;52.532;13.336;2024-03-06T00:45:07;101585.34;;;13.99;49.10
16595;BME280;8410;52.532;13.336;2024-03-06T00:47:35;101585.28;;;13.95;50.15
16595;BME280;8410;52.532;13.336;2024-03-06T00:50:03;101585.19;;;13.87;49.94
16595;BME280;8410;52.532;13.336;2024-03-06T00:52:31;101590.38;;;13.85;50.57
16595;BME280;8410;52.532;13.336;2024-03-06T00:55:01;101587.88;;;13.95;49.97
16595;BME280;8410;52.532;13.336;2024-03-06T00:57:28;101593.66;;;13.74;49.43
16595;BME280;8410;52.532;13.336;2024-03-06T00:59:56;101600.06;;;14.02;49.40
16595;BME280;8410;52.532;13.336;2024-03-06T01:02:23;101598.34;;;14.01;49.42
16595;BME280;8410;52.532;13.336;2024-03-06T01:04:51;101594.81;;;13.96;49.10
16595;BME280;8410;52.532;13.336;2024-03-06T01:07:19;101601.66;;;13.90;49.28
16595;BME280;8410;52.532;13.336;2024-03-06T01:09:46;101596.47;;;13.92;49.82
16595;BME280;8410;52.532;13.336;2024-03-06T01:12:15;101598.34;;;14.01;49.41
16595;BME280;8410;52.532;13.336;2024-03-06T01:14:44;101605.44;;;14.17;49.17
16595;BME280;8410;52.532;13.336;2024-03-06T01:17:12;101600.00;;;13.96;49.25
16595;BME280;8410;52.532;13.336;2024-03-06T01:19:40;101598.34;;;14.02;49.14
16595;BME280;8410;52.532;13.336;2024-03-06T01:22:09;101604.41;;;14.06;49.52
16595;BME280;8410;52.532;13.336;2024-03-06T01:24:37;101602.47;;;13.88;49.26
16595;BME280;8410;52.532;13.336;2024-03-06T01:27:05;101606.78;;;13.87;49.85
16595;BME280;8410;52.532;13.336;2024-03-06T01:29:33;101604.28;;;13.95;49.52
16595;BME280;8410;52.532;13.336;2024-03-06T01:32:01;101611.91;;;13.84;48.85
16595;BME280;8410;52.532;13.336;2024-03-06T01:34:29;101613.75;;;13.93;49.43
16595;BME280;8410;52.532;13.336;2024-03-06T01:36:56;101616.97;;;13.75;50.47
16595;BME280;8410;52.532;13.336;2024-03-06T01:39:24;101615.38;;;13.86;50.14
16595;BME280;8410;52.532;13.336;2024-03-06T01:41:51;101616.72;;;13.57;50.41
16595;BME280;8410;52.532;13.336;2024-03-06T01:44:19;101622.75;;;13.57;50.14
16595;BME280;8410;52.532;13.336;2024-03-06T01:46:48;101621.09;;;13.62;49.68
16595;BME280;8410;52.532;13.336;2024-03-06T01:49:16;101625.72;;;13.83;50.19
16595;BME280;8410;52.532;13.336;2024-03-06T01:51:58;101623.94;;;13.79;49.44
16595;BME280;8410;52.532;13.336;2024-03-06T01:54:27;101624.16;;;13.96;49.34
16595;BME280;8410;52.532;13.336;2024-03-06T01:56:55;101622.25;;;13.84;49.14
16595;BME280;8410;52.532;13.336;2024-03-06T01:59:23;101625.72;;;13.83;49.15
16595;BME280;8410;52.532;13.336;2024-03-06T02:02:03;101635.16;;;13.80;49.16
16595;BME280;8410;52.532;13.336;2024-03-06T02:04:31;101631.59;;;13.73;49.58
16595;BME280;8410;52.532;13.336;2024-03-06T02:06:59;101624.88;;;13.86;49.77
16595;BME280;8410;52.532;13.336;2024-03-06T02:09:27;101627.38;;;13.77;49.94
16595;BME280;8410;52.532;13.336;2024-03-06T02:11:55;101626.38;;;13.68;49.00
16595;BME280;8410;52.532;13.336;2024-03-06T02:14:23;101619.47;;;13.66;49.91
16595;BME280;8410;52.532;13.336;2024-03-06T02:16:50;101624.06;;;13.88;49.55
16595;BME280;8410;52.532;13.336;2024-03-06T02:19:19;101627.41;;;13.81;49.21
16595;BME280;8410;52.532;13.336;2024-03-06T02:21:48;101625.59;;;13.74;50.09
16595;BME280;8410;52.532;13.336;2024-03-06T02:24:15;101625.59;;;13.76;49.61
16595;BME280;8410;52.532;13.336;2024-03-06T02:26:43;101628.50;;;13.99;48.64
16595;BME280;8410;52.532;13.336;2024-03-06T02:29:10;101627.66;;;14.00;49.54
16595;BME280;8410;52.532;13.336;2024-03-06T02:31:38;101638.53;;;13.74;49.39
16595;BME280;8410;52.532;13.336;2024-03-06T02:34:06;101637.63;;;13.72;49.55
16595;BME280;8410;52.532;13.336;2024-03-06T02:36:33;101630.78;;;13.74;49.93
16595;BME280;8410;52.532;13.336;2024-03-06T02:39:03;101638.25;;;13.54;50.27
16595;BME280;8410;52.532;13.336;2024-03-06T02:41:35;101640.09;;;13.63;49.40
16595;BME280;8410;52.532;13.336;2024-03-06T02:44:03;101644.44;;;13.64;49.62
16595;BME280;8410;52.532;13.336;2024-03-06T02:46:31;101644.53;;;13.73;48.67
16595;BME280;8410;52.532;13.336;2024-03-06T02:48:59;101648.16;;;13.84;49.39
16595;BME280;8410;52.532;13.336;2024-03-06T02:51:26;101637.63;;;13.72;49.82
16595;BME280;8410;52.532;13.336;2024-03-06T02:53:54;101650.41;;;13.60;49.88
16595;BME280;8410;52.532;13.336;2024-03-06T02:56:22;101644.44;;;13.64;49.08
16595;BME280;8410;52.532;13.336;2024-03-06T02:58:50;101645.09;;;13.52;49.88
16595;BME280;8410;52.532;13.336;2024-03-06T03:01:17;101640.22;;;13.74;48.89
16595;BME280;8410;52.532;13.336;2024-03-06T03:03:45;101646.38;;;13.25;49.94
16595;BME280;8410;52.532;13.336;2024-03-06T03:06:13;101643.91;;;13.30;49.74
16595;BME280;8410;52.532;13.336;2024-03-06T03:08:41;101647.41;;;13.32;49.65
16595;BME280;8410;52.532;13.336;2024-03-06T03:11:08;101653.47;;;13.36;48.68
16595;BME280;8410;52.532;13.336;2024-03-06T03:13:37;101654.75;;;13.09;50.71
16595;BME280;8410;52.532;13.336;2024-03-06T03:16:06;101663.16;;;13.48;50.19
16595;BME280;8410;52.532;13.336;2024-03-06T03:18:33;101667.19;;;13.29;50.02
16595;BME280;8410;52.532;13.336;2024-03-06T03:21:01;101667.19;;;13.29;49.58
16595;BME280;8410;52.532;13.336;2024-03-06T03:23:28;101668.19;;;13.38;50.34
16595;BME280;8410;52.532;13.336;2024-03-06T03:25:56;101680.53;;;13.58;49.48
16595;BME280;8410;52.532;13.336;2024-03-06T03:28:23;101682.66;;;13.27;50.07
16595;BME280;8410;52.532;13.336;2024-03-06T03:30:52;101687.31;;;13.48;50.15
16595;BME280;8410;52.532;13.336;2024-03-06T03:33:19;101674.91;;;13.27;50.28
16595;BME280;8410;52.532;13.336;2024-03-06T03:35:47;101682.50;;;13.19;50.43
16595;BME280;8410;52.532;13.336;2024-03-06T03:38:14;101686.00;;;13.23;49.90
16595;BME280;8410;52.532;13.336;2024-03-06T03:40:43;101684.63;;;13.43;49.46
16595;BME280;8410;52.532;13.336;2024-03-06T03:43:10;101688.22;;;13.52;49.87
16595;BME280;8410;52.532;13.336;2024-03-06T03:45:38;101681.72;;;13.78;50.02
16595;BME280;8410;52.532;13.336;2024-03-06T03:48:07;101688.91;;;13.41;50.00
16595;BME280;8410;52.532;13.336;2024-03-06T03:50:34;101689.16;;;13.57;50.02
16595;BME280;8410;52.532;13.336;2024-03-06T03:53:02;101691.41;;;13.35;50.62
16595;BME280;8410;52.532;13.336;2024-03-06T03:55:30;101693.31;;;13.45;50.45
16595;BME280;8410;52.532;13.336;2024-03-06T03:57:58;101690.50;;;13.32;50.66
16595;BME280;8410;52.532;13.336;2024-03-06T04:00:26;101696.59;;;13.35;50.50
16595;BME280;8410;52.532;13.336;2024-03-06T04:02:53;101696.19;;;13.64;50.43
16595;BME280;8410;52.532;13.336;2024-03-06T04:05:23;101700.38;;;13.57;49.85
16595;BME280;8410;52.532;13.336;2024-03-06T04:07:50;101693.03;;;13.86;50.60
16595;BME280;8410;52.532;13.336;2024-03-06T04:10:18;101691.16;;;13.75;50.39
16595;BME280;8410;52.532;13.336;2024-03-06T04:12:45;101691.31;;;13.85;50.14
16595;BME280;8410;52.532;13.336;2024-03-06T04:15:13;101694.88;;;13.94;50.76
16595;BME280;8410;52.532;13.336;2024-03-06T04:17:40;101697.53;;;14.00;51.10
16595;BME280;8410;52.532;13.336;2024-03-06T04:20:09;101697.72;;;14.13;50.93
16595;BME280;8410;52.532;13.336;2024-03-06T04:22:40;101702.56;;;13.89;51.28
16595;BME280;8410;52.532;13.336;2024-03-06T04:25:08;101701.66;;;13.85;50.95
16595;BME280;8410;52.532;13.336;2024-03-06T04:27:36;101710.19;;;13.78;50.51
16595;BME280;8410;52.532;13.336;2024-03-06T04:30:04;101704.97;;;13.75;50.32
16595;BME280;8410;52.532;13.336;2024-03-06T04:32:32;101696.50;;;13.87;50.13
16595;BME280;8410;52.532;13.336;2024-03-06T04:34:59;101699.47;;;13.54;50.12
16595;BME280;8410;52.532;13.336;2024-03-06T04:37:27;101706.47;;;13.61;50.75
16595;BME280;8410;52.532;13.336;2024-03-06T04:39:57;101708.25;;;13.65;50.71
16595;BME280;8410;52.532;13.336;2024-03-06T04:42:24;101703.91;;;13.61;51.03
16595;BME280;8410;52.532;13.336;2024-03-06T04:44:52;101713.91;;;13.41;50.95
16595;BME280;8410;52.532;13.336;2024-03-06T04:47:19;101718.25;;;13.43;51.23
16595;BME280;8410;52.532;13.336;2024-03-06T04:49:47;101718.44;;;13.53;50.58
16595;BME280;8410;52.532;13.336;2024-03-06T04:52:16;101717.53;;;13.52;50.45
16595;BME280;8410;52.532;13.336;2024-03-06T04:54:44;101723.94;;;13.24;51.05
16595;BME280;8410;52.532;13.336;2024-03-06T04:57:12;101722.56;;;12.96;51.10
16595;BME280;8410;52.532;13.336;2024-03-06T04:59:40;101729.91;;;13.20;51.53
16595;BME280;8410;52.532;13.336;2024-03-06T05:02:07;101723.72;;;13.12;51.86
16595;BME280;8410;52.532;13.336;2024-03-06T05:04:35;101731.78;;;13.27;51.08
16595;BME280;8410;52.532;13.336;2024-03-06T05:07:20;101739.41;;;13.21;50.76
16595;BME280;8410;52.532;13.336;2024-03-06T05:10:06;101732.44;;;13.17;51.03
16595;BME280;8410;52.532;13.336;2024-03-06T05:12:54;101736.31;;;12.93;51.83
16595;BME280;8410;52.532;13.336;2024-03-06T05:15:39;101744.75;;;12.83;51.74
16595;BME280;8410;52.532;13.336;2024-03-06T05:18:24;101742.81;;;13.18;51.23
16595;BME280;8410;52.532;13.336;2024-03-06T05:21:08;101749.28;;;12.95;52.03
16595;BME280;8410;52.532;13.336;2024-03-06T05:23:54;101750.69;;;12.79;51.66
16595;BME280;8410;52.532;13.336;2024-03-06T05:26:39;101752.34;;;13.21;51.37
16595;BME280;8410;52.532;13.336;2024-03-06T05:29:25;101752.47;;;13.27;51.46
16595;BME280;8410;52.532;13.336;2024-03-06T05:32:10;101756.97;;;13.37;52.16
16595;BME280;8410;52.532;13.336;2024-03-06T05:34:55;101767.25;;;13.34;51.89
16595;BME280;8410;52.532;13.336;2024-03-06T05:37:42;101761.41;;;13.44;52.15
16595;BME280;8410;52.532;13.336;2024-03-06T05:40:27;101764.69;;;13.34;51.78
16595;BME280;8410;52.532;13.336;2024-03-06T05:43:11;101766.44;;;13.37;51.91
16595;BME280;8410;52.532;13.336;2024-03-06T05:45:58;101773.91;;;13.23;52.55
16595;BME280;8410;52.532;13.336;2024-03-06T05:48:44;101777.84;;;13.02;53.13
16595;BME280;8410;52.532;13.336;2024-03-06T05:51:29;101789.19;;;12.67;53.59
16595;BME280;8410;52.532;13.336;2024-03-06T05:54:14;101797.84;;;12.29;54.82
16595;BME280;8410;52.532;13.336;2024-03-06T05:56:59;101799.84;;;12.41;53.54
16595;BME280;8410;52.532;13.336;2024-03-06T05:59:44;101800.91;;;11.77;56.28
16595;BME280;8410;52.532;13.336;2024-03-06T06:02:13;101802.25;;;12.73;54.84
16595;BME280;8410;52.532;13.336;2024-03-06T06:04:42;101805.81;;;11.33;56.32
16595;BME280;8410;52.532;13.336;2024-03-06T06:07:25;101810.38;;;11.76;56.63
16595;BME280;8410;52.532;13.336;2024-03-06T06:09:53;101812.44;;;11.56;57.14
16595;BME280;8410;52.532;13.336;2024-03-06T06:12:20;101810.25;;;12.06;56.65
16595;BME280;8410;52.532;13.336;2024-03-06T06:14:48;101809.75;;;13.03;54.49
16595;BME280;8410;52.532;13.336;2024-03-06T06:17:16;101816.47;;;11.80;57.54
16595;BME280;8410;52.532;13.336;2024-03-06T06:19:46;101822.41;;;11.44;57.33
16595;BME280;8410;52.532;13.336;2024-03-06T06:22:13;101830.47;;;10.93;59.07
16595;BME280;8410;52.532;13.336;2024-03-06T06:24:41;101825.31;;;11.23;58.31
16595;BME280;8410;52.532;13.336;2024-03-06T06:27:12;101827.69;;;11.47;58.65
16595;BME280;8410;52.532;13.336;2024-03-06T06:29:40;101835.41;;;11.15;58.65
16595;BME280;8410;52.532;13.336;2024-03-06T06:32:08;101849.28;;;10.60;60.94
16595;BME280;8410;52.532;13.336;2024-03-06T06:34:37;101834.28;;;11.06;59.23
16595;BME280;8410;52.532;13.336;2024-03-06T06:37:04;101832.59;;;11.71;57.65
16595;BME280;8410;52.532;13.336;2024-03-06T06:39:32;101839.31;;;11.33;57.61
16595;BME280;8410;52.532;13.336;2024-03-06T06:42:00;101832.88;;;11.82;58.12
16595;BME280;8410;52.532;13.336;2024-03-06T06:44:29;101836.44;;;12.61;55.47
16595;BME280;8410;52.532;13.336;2024-03-06T06:46:57;101836.56;;;11.58;58.46
16595;BME280;8410;52.532;13.336;2024-03-06T06:49:24;101835.63;;;12.64;57.47
16595;BME280;8410;52.532;13.336;2024-03-06T06:51:53;101830.75;;;13.20;53.72
16595;BME280;8410;52.532;13.336;2024-03-06T06:54:21;101844.09;;;12.56;54.88
16595;BME280;8410;52.532;13.336;2024-03-06T06:56:48;101839.13;;;13.08;54.81
16595;BME280;8410;52.532;13.336;2024-03-06T06:59:17;101849.00;;;12.44;55.62
16595;BME280;8410;52.532;13.336;2024-03-06T07:01:49;101859.13;;;12.35;56.04
16595;BME280;8410;52.532;13.336;2024-03-06T07:04:17;101852.13;;;13.10;55.61
16595;BME280;8410;52.532;13.336;2024-03-06T07:06:46;101870.88;;;12.60;55.88
16595;BME280;8410;52.532;13.336;2024-03-06T07:09:15;101869.75;;;12.11;56.75
16595;BME280;8410;52.532;13.336;2024-03-06T07:11:43;101866.66;;;11.27;58.84
16595;BME280;8410;52.532;13.336;2024-03-06T07:14:12;101864.00;;;12.23;58.13
16595;BME280;8410;52.532;13.336;2024-03-06T07:16:41;101866.00;;;12.00;56.07
16595;BME280;8410;52.532;13.336;2024-03-06T07:19:09;101867.44;;;12.23;57.27
16595;BME280;8410;52.532;13.336;2024-03-06T07:21:37;101860.06;;;12.39;55.82
16595;BME280;8410;52.532;13.336;2024-03-06T07:24:05;101871.38;;;12.45;55.38
16595;BME280;8410;52.532;13.336;2024-03-06T07:26:34;101883.00;;;11.58;57.97
16595;BME280;8410;52.532;13.336;2024-03-06T07:29:02;101882.56;;;11.43;58.55
16595;BME280;8410;52.532;13.336;2024-03-06T07:31:30;101884.19;;;11.71;57.99
16595;BME280;8410;52.532;13.336;2024-03-06T07:33:58;101878.97;;;12.77;56.71
16595;BME280;8410;52.532;13.336;2024-03-06T07:36:26;101884.94;;;12.74;55.63
16595;BME280;8410;52.532;13.336;2024-03-06T07:38:53;101884.06;;;13.13;54.89
16595;BME280;8410;52.532;13.336;2024-03-06T07:41:21;101879.34;;;13.83;53.37
16595;BME280;8410;52.532;13.336;2024-03-06T07:43:50;101870.50;;;14.22;51.67
16595;BME280;8410;52.532;13.336;2024-03-06T07:46:17;101887.47;;;13.12;55.26
16595;BME280;8410;52.532;13.336;2024-03-06T07:48:44;101882.78;;;14.34;52.18
16595;BME280;8410;52.532;13.336;2024-03-06T07:51:12;101885.88;;;14.11;53.47
16595;BME280;8410;52.532;13.336;2024-03-06T07:53:39;101899.66;;;12.77;54.29
16595;BME280;8410;52.532;13.336;2024-03-06T07:56:10;101904.56;;;13.06;53.77
16595;BME280;8410;52.532;13.336;2024-03-06T07:58:38;101902.38;;;13.25;53.01
16595;BME280;8410;52.532;13.336;2024-03-06T08:01:07;101905.16;;;12.92;54.15
16595;BME280;8410;52.532;13.336;2024-03-06T08:03:35;101896.31;;;13.66;53.36
16595;BME280;8410;52.532;13.336;2024-03-06T08:06:03;101912.59;;;11.73;55.86
16595;BME280;8410;52.532;13.336;2024-03-06T08:08:30;101914.38;;;11.13;58.30
16595;BME280;8410;52.532;13.336;2024-03-06T08:10:58;101917.34;;;12.24;56.22
16595;BME280;8410;52.532;13.336;2024-03-06T08:13:25;101908.25;;;12.03;56.27
16595;BME280;8410;52.532;13.336;2024-03-06T08:15:53;101918.97;;;12.55;54.79
16595;BME280;8410;52.532;13.336;2024-03-06T08:18:22;101922.03;;;12.40;56.71
16595;BME280;8410;52.532;13.336;2024-03-06T08:20:50;101912.81;;;13.27;53.02
16595;BME280;8410;52.532;13.336;2024-03-06T08:23:19;101922.66;;;13.45;53.66
16595;BME280;8410;52.532;13.336;2024-03-06T08:25:47;101916.16;;;13.67;53.64
16595;BME280;8410;52.532;13.336;2024-03-06T08:28:14;101918.22;;;14.37;51.60
16595;BME280;8410;52.532;13.336;2024-03-06T08:30:42;101913.28;;;14.52;51.33
16595;BME280;8410;52.532;13.336;2024-03-06T08:33:10;101908.41;;;15.42;49.08
16595;BME280;8410;52.532;13.336;2024-03-06T08:35:40;101923.88;;;14.67;51.16
16595;BME280;8410;52.532;13.336;2024-03-06T08:38:08;101926.97;;;15.04;49.53
16595;BME280;8410;52.532;13.336;2024-03-06T08:40:35;101933.19;;;14.03;51.15
16595;BME280;8410;52.532;13.336;2024-03-06T08:43:05;101918.16;;;15.61;48.48
16595;BME280;8410;52.532;13.336;2024-03-06T08:45:34;101943.22;;;12.99;52.98
16595;BME280;8410;52.532;13.336;2024-03-06T08:48:02;101939.84;;;14.39;51.70
16595;BME280;8410;52.532;13.336;2024-03-06T08:50:30;101934.00;;;14.52;51.89
16595;BME280;8410;52.532;13.336;2024-03-06T08:52:59;101937.03;;;14.26;50.81
16595;BME280;8410;52.532;13.336;2024-03-06T08:55:28;101939.63;;;14.80;50.78
16595;BME280;8410;52.532;13.336;2024-03-06T08:57:56;101938.47;;;15.21;49.99
16595;BME280;8410;52.532;13.336;2024-03-06T09:00:24;101946.16;;;15.17;49.42
16595;BME280;8410;52.532;13.336;2024-03-06T09:02:53;101943.47;;;15.09;49.86
16595;BME280;8410;52.532;13.336;2024-03-06T09:05:20;101926.63;;;15.45;48.38
16595;BME280;8410;52.532;13.336;2024-03-06T09:07:48;101936.88;;;15.36;48.91
16595;BME280;8410;52.532;13.336;2024-03-06T09:10:17;101949.28;;;14.91;49.88
16595;BME280;8410;52.532;13.336;2024-03-06T09:12:45;101959.97;;;13.58;51.62
16595;BME280;8410;52.532;13.336;2024-03-06T09:15:14;101958.75;;;13.40;52.66
16595;BME280;8410;52.532;13.336;2024-03-06T09:17:43;101962.00;;;13.29;53.35
16595;BME280;8410;52.532;13.336;2024-03-06T09:20:11;101947.44;;;14.29;51.75
16595;BME280;8410;52.532;13.336;2024-03-06T09:22:40;101946.44;;;14.74;50.03
16595;BME280;8410;52.532;13.336;2024-03-06T09:25:09;101940.88;;;15.81;47.63
16595;BME280;8410;52.532;13.336;2024-03-06T09:27:40;101943.28;;;16.62;46.63
16595;BME280;8410;52.532;13.336;2024-03-06T09:30:09;101958.47;;;15.33;48.42
16595;BME280;8410;52.532;13.336;2024-03-06T09:32:37;101963.81;;;13.77;51.84
16595;BME280;8410;52.532;13.336;2024-03-06T09:35:06;101960.13;;;14.12;51.89
16595;BME280;8410;52.532;13.336;2024-03-06T09:37:34;101951.31;;;15.87;47.64
16595;BME280;8410;52.532;13.336;2024-03-06T09:40:01;101965.56;;;14.28;50.09
16595;BME280;8410;52.532;13.336;2024-03-06T09:42:30;101959.44;;;15.41;48.42
16595;BME280;8410;52.532;13.336;2024-03-06T09:44:59;101966.38;;;14.77;48.77
16595;BME280;8410;52.532;13.336;2024-03-06T09:47:31;101977.63;;;14.81;48.25
16595;BME280;8410;52.532;13.336;2024-03-06T09:50:00;101965.81;;;14.98;48.50
16595;BME280;8410;52.532;13.336;2024-03-06T09:52:30;101970.34;;;14.55;49.16
16595;BME280;8410;52.532;13.336;2024-03-06T09:54:58;101972.63;;;14.37;50.14
16595;BME280;8410;52.532;13.336;2024-03-06T09:57:26;101972.53;;;14.84;48.44
16595;BME280;8410;52.532;13.336;2024-03-06T09:59:54;101981.47;;;15.06;49.43
16595;BME280;8410;52.532;13.336;2024-03-06T10:02:31;101976.94;;;14.91;49.80
16595;BME280;8410;52.532;13.336;2024-03-06T10:05:03;101982.44;;;14.56;50.42
16595;BME280;8410;52.532;13.336;2024-03-06T10:07:31;101998.31;;;13.79;50.22
16595;BME280;8410;52.532;13.336;2024-03-06T10:09:59;101993.50;;;13.14;53.09
16595;BME280;8410;52.532;13.336;2024-03-06T10:12:28;101983.63;;;14.23;51.87
16595;BME280;8410;52.532;13.336;2024-03-06T10:14:56;101977.78;;;14.90;49.63
16595;BME280;8410;52.532;13.336;2024-03-06T10:17:25;101982.63;;;14.65;50.34
16595;BME280;8410;52.532;13.336;2024-03-06T10:19:54;101986.22;;;15.37;48.19
16595;BME280;8410;52.532;13.336;2024-03-06T10:22:25;101981.31;;;15.62;46.83
16595;BME280;8410;52.532;13.336;2024-03-06T10:24:55;101980.81;;;15.92;48.00
16595;BME280;8410;52.532;13.336;2024-03-06T10:27:23;101976.25;;;15.71;46.63
16595;BME280;8410;52.532;13.336;2024-03-06T10:30:01;101980.81;;;15.22;47.77
16595;BME280;8410;52.532;13.336;2024-03-06T10:32:32;101979.09;;;15.94;46.91
16595;BME280;8410;52.532;13.336;2024-03-06T10:35:00;101990.28;;;14.59;50.21
16595;BME280;8410;52.532;13.336;2024-03-06T10:37:28;101992.28;;;14.77;50.10
16595;BME280;8410;52.532;13.336;2024-03-06T10:39:58;101985.72;;;15.00;47.95
16595;BME280;8410;52.532;13.336;2024-03-06T10:42:33;101982.34;;;15.72;47.99
16595;BME280;8410;52.532;13.336;2024-03-06T10:45:01;101988.97;;;14.34;50.52
16595;BME280;8410;52.532;13.336;2024-03-06T10:47:29;101996.06;;;13.52;51.96
16595;BME280;8410;52.532;13.336;2024-03-06T10:50:02;101989.53;;;14.16;50.79
16595;BME280;8410;52.532;13.336;2024-03-06T10:52:33;101983.59;;;14.73;47.80
16595;BME280;8410;52.532;13.336;2024-03-06T10:55:01;101981.28;;;14.40;49.40
16595;BME280;8410;52.532;13.336;2024-03-06T10:57:29;101996.69;;;13.82;50.23
16595;BME280;8410;52.532;13.336;2024-03-06T10:59:57;101989.03;;;13.88;50.01
16595;BME280;8410;52.532;13.336;2024-03-06T11:02:31;101974.84;;;14.65;49.15
16595;BME280;8410;52.532;13.336;2024-03-06T11:05:01;101981.88;;;15.35;47.71
16595;BME280;8410;52.532;13.336;2024-03-06T11:07:31;101980.25;;;15.46;46.83
16595;BME280;8410;52.532;13.336;2024-03-06T11:09:59;101996.78;;;13.88;49.10
16595;BME280;8410;52.532;13.336;2024-03-06T11:12:35;101983.19;;;15.05;47.73
16595;BME280;8410;52.532;13.336;2024-03-06T11:15:13;101976.09;;;14.92;47.89
16595;BME280;8410;52.532;13.336;2024-03-06T11:17:42;101977.25;;;15.84;46.21
16595;BME280;8410;52.532;13.336;2024-03-06T11:20:16;101985.25;;;14.18;47.09
16595;BME280;8410;52.532;13.336;2024-03-06T11:23:04;101980.34;;;15.55;48.22
16595;BME280;8410;52.532;13.336;2024-03-06T11:25:59;101978.28;;;16.00;46.48
16595;BME280;8410;52.532;13.336;2024-03-06T11:28:28;101980.09;;;15.34;48.59
16595;BME280;8410;52.532;13.336;2024-03-06T11:30:58;101988.78;;;15.36;47.85
16595;BME280;8410;52.532;13.336;2024-03-06T11:33:34;101982.50;;;14.59;48.29
16595;BME280;8410;52.532;13.336;2024-03-06T11:36:19;101980.47;;;14.43;48.47
16595;BME280;8410;52.532;13.336;2024-03-06T11:38:51;101979.13;;;14.65;48.39
16595;BME280;8410;52.532;13.336;2024-03-06T11:41:21;101964.50;;;16.08;46.13
16595;BME280;8410;52.532;13.336;2024-03-06T11:43:52;101967.59;;;16.70;44.14
16595;BME280;8410;52.532;13.336;2024-03-06T11:46:21;101960.91;;;17.03;43.88
16595;BME280;8410;52.532;13.336;2024-03-06T11:48:53;101952.53;;;17.83;42.88
16595;BME280;8410;52.532;13.336;2024-03-06T11:51:23;101949.09;;;18.40;41.94
16595;BME280;8410;52.532;13.336;2024-03-06T11:53:51;101985.19;;;15.25;46.73
16595;BME280;8410;52.532;13.336;2024-03-06T11:56:19;101969.13;;;16.43;44.77
16595;BME280;8410;52.532;13.336;2024-03-06T11:58:47;101957.69;;;17.62;42.00
16595;BME280;8410;52.532;13.336;2024-03-06T12:01:16;101970.53;;;16.01;43.09
16595;BME280;8410;52.532;13.336;2024-03-06T12:03:46;101971.19;;;16.86;42.51
16595;BME280;8410;52.532;13.336;2024-03-06T12:06:15;101971.78;;;15.59;44.33
16595;BME280;8410;52.532;13.336;2024-03-06T12:08:45;101959.66;;;16.51;43.21
16595;BME280;8410;52.532;13.336;2024-03-06T12:11:13;101968.78;;;16.03;44.81
16595;BME280;8410;52.532;13.336;2024-03-06T12:13:41;101974.91;;;15.34;46.29
16595;BME280;8410;52.532;13.336;2024-03-06T12:16:09;101982.16;;;14.92;45.65
16595;BME280;8410;52.532;13.336;2024-03-06T12:18:38;101967.47;;;15.61;44.32
16595;BME280;8410;52.532;13.336;2024-03-06T12:21:05;101956.84;;;16.21;44.25
16595;BME280;8410;52.532;13.336;2024-03-06T12:23:33;101961.31;;;15.53;45.30
16595;BME280;8410;52.532;13.336;2024-03-06T12:26:06;101962.34;;;16.61;43.94
16595;BME280;8410;52.532;13.336;2024-03-06T12:28:35;101956.44;;;16.80;43.34
16595;BME280;8410;52.532;13.336;2024-03-06T12:31:03;101951.50;;;17.37;42.58
16595;BME280;8410;52.532;13.336;2024-03-06T12:33:31;101956.88;;;16.27;43.45
16595;BME280;8410;52.532;13.336;2024-03-06T12:36:02;101962.59;;;16.93;42.83
16595;BME280;8410;52.532;13.336;2024-03-06T12:38:30;101951.84;;;16.45;43.16
16595;BME280;8410;52.532;13.336;2024-03-06T12:40:59;101959.75;;;15.68;45.68
16595;BME280;8410;52.532;13.336;2024-03-06T12:43:28;101944.56;;;17.33;43.06
16595;BME280;8410;52.532;13.336;2024-03-06T12:45:56;101959.50;;;16.33;44.65
16595;BME280;8410;52.532;13.336;2024-03-06T12:48:25;101950.13;;;16.47;44.57
16595;BME280;8410;52.532;13.336;2024-03-06T12:50:54;101949.59;;;15.86;45.21
16595;BME280;8410;52.532;13.336;2024-03-06T12:53:22;101955.53;;;15.76;45.46
16595;BME280;8410;52.532;13.336;2024-03-06T12:55:50;101947.16;;;16.06;45.56
16595;BME280;8410;52.532;13.336;2024-03-06T12:58:17;101936.72;;;17.19;44.12
16595;BME280;8410;52.532;13.336;2024-03-06T13:00:46;101945.97;;;16.75;44.44
16595;BME280;8410;52.532;13.336;2024-03-06T13:03:14;101953.94;;;16.95;44.07